Terminal Aerodrome Forecast
Issued by NWS Cleveland, OH

Home | Current Version | Previous Version | Graphics & Text | Print | Product List | Glossary On
Versions: 1 2 3 4 5 6 7 8 9 10 11 12 13 14
380
FTUS41 KCLE 251735
TAFTOL
TAF
KTOL 251735Z 2518/2618 27015G25KT P6SM SCT050
     FM252300 26008KT P6SM FEW050
     FM260800 25010KT P6SM SCT035 OVC050
     FM261500 27015G25KT P6SM BKN060=

USA.gov is the U.S. government's official web portal to all federal, state and local government web resources and services.